createdAt,value
2018-08-07T00:00:21.313Z,3.10
2018-08-07T00:02:51.059Z,2.33
2018-08-07T00:05:19.573Z,2.60
2018-08-07T00:07:50.555Z,2.37
2018-08-07T00:10:20.401Z,3.33
2018-08-07T00:12:49.040Z,3.22
2018-08-07T00:15:17.630Z,3.00
2018-08-07T00:17:46.126Z,3.40
2018-08-07T00:20:16.169Z,3.00
2018-08-07T00:22:46.085Z,3.58
2018-08-07T00:25:15.327Z,3.10
2018-08-07T00:27:44.374Z,3.43
2018-08-07T00:30:15.226Z,3.00
2018-08-07T00:32:44.085Z,3.70
2018-08-07T00:35:19.379Z,3.80
2018-08-07T00:37:48.499Z,4.00
2018-08-07T00:40:18.191Z,4.05
2018-08-07T00:42:47.039Z,3.43
2018-08-07T00:45:17.760Z,3.57
2018-08-07T00:47:46.384Z,3.20
2018-08-07T00:50:17.477Z,2.77
2018-08-07T00:52:47.039Z,3.40
2018-08-07T00:55:16.420Z,3.43
2018-08-07T00:57:45.056Z,3.70
2018-08-07T01:00:14.587Z,3.40
2018-08-07T01:02:45.887Z,3.40
2018-08-07T01:05:16.309Z,3.10
2018-08-07T01:07:44.918Z,3.40
2018-08-07T01:10:15.768Z,3.17
2018-08-07T01:12:44.462Z,2.80
2018-08-07T01:15:16.486Z,3.27
2018-08-07T01:17:45.932Z,2.90
2018-08-07T01:20:16.005Z,3.00
2018-08-07T01:22:45.132Z,3.20
2018-08-07T01:25:17.998Z,3.50
2018-08-07T01:27:46.472Z,3.57
2018-08-07T01:30:17.324Z,4.00
2018-08-07T01:32:45.824Z,3.30
2018-08-07T01:35:14.278Z,3.25
2018-08-07T01:37:42.826Z,3.13
2018-08-07T01:40:12.624Z,2.95
2018-08-07T01:42:41.915Z,3.40
2018-08-07T01:45:11.517Z,3.27
2018-08-07T01:47:40.544Z,3.23
2018-08-07T01:50:11.161Z,2.83
2018-08-07T01:52:39.687Z,3.13
2018-08-07T01:55:10.267Z,2.80
2018-08-07T01:57:38.882Z,2.77
2018-08-07T02:00:11.233Z,3.95
2018-08-07T02:02:39.738Z,2.90
2018-08-07T02:05:10.470Z,3.80
2018-08-07T02:07:38.980Z,3.67
2018-08-07T02:10:10.320Z,3.30
2018-08-07T02:12:38.857Z,2.70
2018-08-07T02:15:08.335Z,3.10
2018-08-07T02:17:36.797Z,3.20
2018-08-07T02:20:07.046Z,3.50
2018-08-07T02:22:36.099Z,3.53
2018-08-07T02:25:06.130Z,2.97
2018-08-07T02:27:34.624Z,3.83
2018-08-07T02:30:03.136Z,3.67
2018-08-07T02:32:31.584Z,3.73
2018-08-07T02:35:00.038Z,3.00
2018-08-07T02:37:28.510Z,3.43
2018-08-07T02:39:57.198Z,3.60
2018-08-07T02:42:25.811Z,3.83
2018-08-07T02:44:54.295Z,4.37
2018-08-07T02:47:22.864Z,3.20
2018-08-07T02:49:51.515Z,3.13
2018-08-07T02:52:20.002Z,3.92
2018-08-07T02:54:48.698Z,3.63
2018-08-07T02:57:17.420Z,4.28
2018-08-07T02:59:45.856Z,4.10
2018-08-07T03:02:14.414Z,3.35
2018-08-07T03:04:42.887Z,3.40
2018-08-07T03:07:11.359Z,3.40
2018-08-07T03:09:39.933Z,3.90
2018-08-07T03:12:08.617Z,3.90
2018-08-07T03:14:37.072Z,3.13
2018-08-07T03:17:06.547Z,3.20
2018-08-07T03:19:35.027Z,2.53
2018-08-07T03:22:03.504Z,2.90
2018-08-07T03:24:31.987Z,3.17
2018-08-07T03:27:00.484Z,3.10
2018-08-07T03:29:28.907Z,3.52
2018-08-07T03:31:57.337Z,3.13
2018-08-07T03:34:25.829Z,10.27
2018-08-07T03:36:54.380Z,8.97
2018-08-07T03:39:22.887Z,4.20
2018-08-07T03:41:51.371Z,4.03
2018-08-07T03:44:19.830Z,3.53
2018-08-07T03:46:48.319Z,3.87
2018-08-07T03:49:16.856Z,3.33
2018-08-07T03:51:45.283Z,3.30
2018-08-07T03:54:13.799Z,3.43
2018-08-07T03:56:42.288Z,2.53
2018-08-07T03:59:10.887Z,3.10
2018-08-07T04:01:39.239Z,3.00
2018-08-07T04:04:07.975Z,3.37
2018-08-07T04:06:36.424Z,3.02
2018-08-07T04:09:12.010Z,3.53
2018-08-07T04:11:40.814Z,3.03
2018-08-07T04:14:10.367Z,3.30
2018-08-07T04:16:43.262Z,3.73
2018-08-07T04:19:12.262Z,2.73
2018-08-07T04:21:40.780Z,2.90
2018-08-07T04:24:09.215Z,2.93
2018-08-07T04:26:37.688Z,3.50
2018-08-07T04:29:07.467Z,3.50
2018-08-07T04:31:36.219Z,3.17
2018-08-07T04:34:04.689Z,3.40
2018-08-07T04:36:33.479Z,2.77
2018-08-07T04:39:02.502Z,2.67
2018-08-07T04:41:30.916Z,3.35
2018-08-07T04:43:59.659Z,2.57
2018-08-07T04:46:28.315Z,2.33
2018-08-07T04:48:57.004Z,3.00
2018-08-07T04:51:25.694Z,3.45
2018-08-07T04:53:54.200Z,2.97
2018-08-07T04:56:23.175Z,3.40
2018-08-07T04:58:51.615Z,2.50
2018-08-07T05:01:20.070Z,3.55
2018-08-07T05:03:48.519Z,2.90
2018-08-07T05:06:17.246Z,3.20
2018-08-07T05:08:45.908Z,2.30
2018-08-07T05:11:14.352Z,3.87
2018-08-07T05:13:42.827Z,3.07
2018-08-07T05:16:11.315Z,2.08
2018-08-07T05:18:40.071Z,2.60
2018-08-07T05:21:08.640Z,2.73
2018-08-07T05:23:37.092Z,3.12
2018-08-07T05:26:05.812Z,2.83
2018-08-07T05:28:34.520Z,2.92
2018-08-07T05:31:02.955Z,3.40
2018-08-07T05:33:31.423Z,2.67
2018-08-07T05:36:00.119Z,3.93
2018-08-07T05:38:30.294Z,3.10
2018-08-07T05:40:58.777Z,3.53
2018-08-07T05:43:27.247Z,3.23
2018-08-07T05:45:55.707Z,3.27
2018-08-07T05:48:24.185Z,3.10
2018-08-07T05:50:53.354Z,3.37
2018-08-07T05:53:21.511Z,3.83
2018-08-07T05:55:50.178Z,3.70
2018-08-07T05:58:18.690Z,4.62
2018-08-07T06:00:47.144Z,5.53
2018-08-07T06:03:15.811Z,4.53
2018-08-07T06:05:44.253Z,4.93
2018-08-07T06:08:12.883Z,4.33
2018-08-07T06:10:41.383Z,4.70
2018-08-07T06:13:10.145Z,4.80
2018-08-07T06:15:38.646Z,3.67
2018-08-07T06:18:07.752Z,4.40
2018-08-07T06:20:36.273Z,4.20
2018-08-07T06:23:04.789Z,4.93
2018-08-07T06:25:33.301Z,4.43
2018-08-07T06:28:01.779Z,3.80
2018-08-07T06:30:31.169Z,3.45
2018-08-07T06:32:59.643Z,4.20
2018-08-07T06:35:28.178Z,3.57
2018-08-07T06:37:56.602Z,3.90
2018-08-07T06:40:25.107Z,4.95
2018-08-07T06:42:53.563Z,5.03
2018-08-07T06:45:22.017Z,5.03
2018-08-07T06:47:50.459Z,4.23
2018-08-07T06:50:20.554Z,4.50
2018-08-07T06:52:50.124Z,4.10
2018-08-07T06:55:18.563Z,4.67
2018-08-07T06:57:47.038Z,4.67
2018-08-07T07:00:22.255Z,5.17
2018-08-07T07:02:50.867Z,3.97
2018-08-07T07:05:19.693Z,4.62
2018-08-07T07:07:48.156Z,4.37
2018-08-07T07:10:16.938Z,5.37
2018-08-07T07:12:46.184Z,4.97
2018-08-07T07:15:15.691Z,5.42
2018-08-07T07:17:45.524Z,6.07
2018-08-07T07:20:15.477Z,5.60
2018-08-07T07:22:45.396Z,3.90
2018-08-07T07:25:13.928Z,5.10
2018-08-07T07:27:42.744Z,4.47
2018-08-07T07:30:17.683Z,4.77
2018-08-07T07:32:47.302Z,4.73
2018-08-07T07:35:16.589Z,4.53
2018-08-07T07:37:45.123Z,4.00
2018-08-07T07:40:13.996Z,5.90
2018-08-07T07:42:42.450Z,5.67
2018-08-07T07:45:14.293Z,5.13
2018-08-07T07:47:43.700Z,6.70
2018-08-07T07:50:15.752Z,4.73
2018-08-07T07:52:44.871Z,5.17
2018-08-07T07:55:14.518Z,5.50
2018-08-07T07:57:43.040Z,4.67
2018-08-07T08:00:14.475Z,4.73
2018-08-07T08:02:42.947Z,4.50
2018-08-07T08:05:11.391Z,4.30
2018-08-07T08:07:40.319Z,5.20
2018-08-07T08:10:09.991Z,5.07
2018-08-07T08:12:39.858Z,6.13
2018-08-07T08:15:14.496Z,5.20
2018-08-07T08:17:44.167Z,5.03
2018-08-07T08:20:14.719Z,5.75
2018-08-07T08:22:43.496Z,4.87
2018-08-07T08:25:12.205Z,5.47
2018-08-07T08:27:41.179Z,6.07
2018-08-07T08:30:14.048Z,5.57
2018-08-07T08:32:42.938Z,5.40
2018-08-07T08:35:13.325Z,5.70
2018-08-07T08:37:42.392Z,6.33
2018-08-07T08:40:20.110Z,5.40
2018-08-07T08:42:48.615Z,5.83
2018-08-07T08:45:19.204Z,5.10
2018-08-07T08:47:49.249Z,5.87
2018-08-07T08:50:18.887Z,5.17
2018-08-07T08:52:47.398Z,6.47
2018-08-07T08:55:15.896Z,5.23
2018-08-07T08:57:45.022Z,6.60
2018-08-07T09:00:22.763Z,6.07
2018-08-07T09:02:51.534Z,6.43
2018-08-07T09:05:19.997Z,6.50
2018-08-07T09:07:48.464Z,6.07
2018-08-07T09:10:21.447Z,6.42
2018-08-07T09:12:50.690Z,6.10
2018-08-07T09:15:19.543Z,6.23
2018-08-07T09:17:48.430Z,5.60
2018-08-07T09:20:20.813Z,6.40
2018-08-07T09:22:49.813Z,6.57
2018-08-07T09:25:19.146Z,6.23
2018-08-07T09:27:47.574Z,6.00
2018-08-07T09:30:21.423Z,7.40
2018-08-07T09:32:50.640Z,5.90
2018-08-07T09:35:20.033Z,5.70
2018-08-07T09:37:48.587Z,6.75
2018-08-07T09:40:18.756Z,5.80
2018-08-07T09:42:48.721Z,6.33
2018-08-07T09:45:20.632Z,6.33
2018-08-07T09:47:52.003Z,6.00
2018-08-07T09:50:21.608Z,5.83
2018-08-07T09:52:50.356Z,6.33
2018-08-07T09:55:19.067Z,6.30
2018-08-07T09:57:47.827Z,7.43
2018-08-07T10:00:25.555Z,6.87
2018-08-07T10:02:56.685Z,6.60
2018-08-07T10:05:26.892Z,6.27
2018-08-07T10:07:55.199Z,6.58
2018-08-07T10:10:24.227Z,6.03
2018-08-07T10:12:52.691Z,5.87
2018-08-07T10:15:21.444Z,7.30
2018-08-07T10:17:49.929Z,5.77
2018-08-07T10:20:18.418Z,5.37
2018-08-07T10:22:47.009Z,6.53
2018-08-07T10:25:16.964Z,7.00
2018-08-07T10:27:46.368Z,5.40
2018-08-07T10:30:16.457Z,6.67
2018-08-07T10:32:44.977Z,6.70
2018-08-07T10:35:14.244Z,6.23
2018-08-07T10:37:43.664Z,6.80
2018-08-07T10:40:21.862Z,6.45
2018-08-07T10:42:50.469Z,6.37
2018-08-07T10:45:20.664Z,5.90
2018-08-07T10:47:49.251Z,6.17
2018-08-07T10:50:20.699Z,6.53
2018-08-07T10:52:49.616Z,6.30
2018-08-07T10:55:18.875Z,6.20
2018-08-07T10:57:48.949Z,6.27
2018-08-07T11:00:23.460Z,6.60
2018-08-07T11:02:52.688Z,5.10
2018-08-07T11:05:21.747Z,8.45
2018-08-07T11:07:50.328Z,6.87
2018-08-07T11:10:19.119Z,5.47
2018-08-07T11:12:47.588Z,6.03
2018-08-07T11:15:19.715Z,5.83
2018-08-07T11:17:48.923Z,5.10
2018-08-07T11:20:17.743Z,5.20
2018-08-07T11:22:47.724Z,5.80
2018-08-07T11:25:17.597Z,4.90
2018-08-07T11:27:46.132Z,4.87
2018-08-07T11:30:19.770Z,5.77
2018-08-07T11:32:48.835Z,5.13
2018-08-07T11:35:17.918Z,5.57
2018-08-07T11:37:49.008Z,5.57
2018-08-07T11:40:19.347Z,5.78
2018-08-07T11:42:48.887Z,6.17
2018-08-07T11:45:18.849Z,5.30
2018-08-07T11:47:47.545Z,6.10
2018-08-07T11:50:17.834Z,4.65
2018-08-07T11:52:46.800Z,4.70
2018-08-07T11:55:16.716Z,5.37
2018-08-07T11:57:46.140Z,5.03
2018-08-07T12:00:21.190Z,5.27
2018-08-07T12:02:49.979Z,5.50
2018-08-07T12:05:18.782Z,5.50
2018-08-07T12:07:47.447Z,5.43
2018-08-07T12:10:17.403Z,5.17
2018-08-07T12:12:46.369Z,4.58
2018-08-07T12:15:17.128Z,4.77
2018-08-07T12:17:45.752Z,4.63
2018-08-07T12:20:14.397Z,4.90
2018-08-07T12:22:43.290Z,5.17
2018-08-07T12:25:13.463Z,5.23
2018-08-07T12:27:41.970Z,4.77
2018-08-07T12:30:16.054Z,5.20
2018-08-07T12:32:44.781Z,4.97
2018-08-07T12:35:13.292Z,4.83
2018-08-07T12:37:41.908Z,4.83
2018-08-07T12:40:15.902Z,4.83
2018-08-07T12:42:44.802Z,4.07
2018-08-07T12:45:13.374Z,4.27
2018-08-07T12:47:42.696Z,3.63
2018-08-07T12:50:12.393Z,4.07
2018-08-07T12:52:40.904Z,4.10
2018-08-07T12:55:11.815Z,4.93
2018-08-07T12:57:40.334Z,4.03
2018-08-07T13:00:14.880Z,3.30
2018-08-07T13:02:43.810Z,3.80
2018-08-07T13:05:12.319Z,3.70
2018-08-07T13:07:40.975Z,3.23
2018-08-07T13:10:14.428Z,3.60
2018-08-07T13:12:43.891Z,3.13
2018-08-07T13:15:14.265Z,4.13
2018-08-07T13:17:43.189Z,3.90
2018-08-07T13:20:12.025Z,3.50
2018-08-07T13:22:41.612Z,3.33
2018-08-07T13:25:13.080Z,3.77
2018-08-07T13:27:41.598Z,3.10
2018-08-07T13:30:15.291Z,3.80
2018-08-07T13:32:43.808Z,4.57
2018-08-07T13:35:12.721Z,4.22
2018-08-07T13:37:42.345Z,4.20
2018-08-07T13:40:13.491Z,5.23
2018-08-07T13:42:41.986Z,4.30
2018-08-07T13:45:12.827Z,3.63
2018-08-07T13:47:41.258Z,3.70
2018-08-07T13:50:13.099Z,4.90
2018-08-07T13:52:42.143Z,4.10
2018-08-07T13:55:11.255Z,4.72
2018-08-07T13:57:40.057Z,4.12
2018-08-07T14:00:17.925Z,3.83
2018-08-07T14:02:47.260Z,4.30
2018-08-07T14:05:16.977Z,3.57
2018-08-07T14:07:46.344Z,4.30
2018-08-07T14:10:15.563Z,3.27
2018-08-07T14:12:44.039Z,3.45
2018-08-07T14:15:14.264Z,3.97
2018-08-07T14:17:44.094Z,3.30
2018-08-07T14:20:13.830Z,4.10
2018-08-07T14:22:42.508Z,4.77
2018-08-07T14:25:13.455Z,4.60
2018-08-07T14:27:41.927Z,3.90
2018-08-07T14:30:26.379Z,5.67
2018-08-07T14:32:54.892Z,5.30
2018-08-07T14:35:23.472Z,4.20
2018-08-07T14:37:51.949Z,4.17
2018-08-07T14:40:23.207Z,4.90
2018-08-07T14:42:52.160Z,4.63
2018-08-07T14:45:23.166Z,4.33
2018-08-07T14:47:52.610Z,4.10
2018-08-07T14:50:23.631Z,4.27
2018-08-07T14:52:52.580Z,4.57
2018-08-07T14:55:21.442Z,3.77
2018-08-07T14:57:50.141Z,4.20
2018-08-07T15:00:21.917Z,4.40
2018-08-07T15:02:50.849Z,5.20
2018-08-07T15:05:19.371Z,4.40
2018-08-07T15:07:48.091Z,3.60
2018-08-07T15:10:25.350Z,4.27
2018-08-07T15:12:53.852Z,3.80
2018-08-07T15:15:27.079Z,4.20
2018-08-07T15:17:55.864Z,4.10
2018-08-07T15:20:26.175Z,3.83
2018-08-07T15:22:55.457Z,3.62
2018-08-07T15:25:24.750Z,3.25
2018-08-07T15:27:53.206Z,3.90
2018-08-07T15:30:24.837Z,3.63
2018-08-07T15:32:53.719Z,3.75
2018-08-07T15:35:24.732Z,3.13
2018-08-07T15:37:53.140Z,3.70
2018-08-07T15:40:22.171Z,3.43
2018-08-07T15:42:50.692Z,6.47
2018-08-07T15:45:21.902Z,2.67
2018-08-07T15:47:50.701Z,3.40
2018-08-07T15:50:19.968Z,3.07
2018-08-07T15:52:50.286Z,3.43
2018-08-07T15:55:20.671Z,2.90
2018-08-07T15:57:49.178Z,3.63
2018-08-07T16:00:20.016Z,3.40
2018-08-07T16:02:48.590Z,3.17
2018-08-07T16:05:17.819Z,3.10
2018-08-07T16:07:46.355Z,4.10
2018-08-07T16:10:16.338Z,4.20
2018-08-07T16:12:45.896Z,4.63
2018-08-07T16:15:14.700Z,5.10
2018-08-07T16:17:44.880Z,4.20
2018-08-07T16:20:13.571Z,4.90
2018-08-07T16:22:42.104Z,4.80
2018-08-07T16:25:12.447Z,5.37
2018-08-07T16:27:42.534Z,5.13
2018-08-07T16:30:14.106Z,6.07
2018-08-07T16:32:42.506Z,5.30
2018-08-07T16:35:11.296Z,4.90
2018-08-07T16:37:39.784Z,5.03
2018-08-07T16:40:10.612Z,5.07
2018-08-07T16:42:39.408Z,6.30
2018-08-07T16:45:10.331Z,6.53
2018-08-07T16:47:39.363Z,7.10
2018-08-07T16:50:09.374Z,5.67
2018-08-07T16:52:37.873Z,5.97
2018-08-07T16:55:07.392Z,7.60
2018-08-07T16:57:35.891Z,6.20
2018-08-07T17:00:05.812Z,6.65
2018-08-07T17:02:34.328Z,6.43
2018-08-07T17:05:02.826Z,7.00
2018-08-07T17:07:31.320Z,8.00
2018-08-07T17:09:59.795Z,7.67
2018-08-07T17:12:28.299Z,9.80
2018-08-07T17:14:56.748Z,7.73
2018-08-07T17:17:25.241Z,6.70
2018-08-07T17:19:53.690Z,6.80
2018-08-07T17:22:22.237Z,7.40
2018-08-07T17:24:50.742Z,7.10
2018-08-07T17:27:19.457Z,6.80
2018-08-07T17:29:47.999Z,6.50
2018-08-07T17:32:16.465Z,7.60
2018-08-07T17:34:44.958Z,6.83
2018-08-07T17:37:13.531Z,8.35
2018-08-07T17:39:42.138Z,6.97
2018-08-07T17:42:10.579Z,6.90
2018-08-07T17:44:39.042Z,5.70
2018-08-07T17:47:07.550Z,7.67
2018-08-07T17:49:35.991Z,6.67
2018-08-07T17:52:04.787Z,5.87
2018-08-07T17:54:33.258Z,5.57
2018-08-07T17:57:01.783Z,6.53
2018-08-07T17:59:30.304Z,5.80
2018-08-07T18:01:58.869Z,5.60
2018-08-07T18:04:27.348Z,5.87
2018-08-07T18:06:55.898Z,5.70
2018-08-07T18:09:24.566Z,4.20
2018-08-07T18:11:53.039Z,5.10
2018-08-07T18:14:21.576Z,4.43
2018-08-07T18:16:50.055Z,4.67
2018-08-07T18:19:18.527Z,4.53
2018-08-07T18:21:47.094Z,4.77
2018-08-07T18:24:15.568Z,5.40
2018-08-07T18:26:44.072Z,4.87
2018-08-07T18:29:12.574Z,5.17
2018-08-07T18:31:41.035Z,4.67
2018-08-07T18:34:09.924Z,4.78
2018-08-07T18:36:38.370Z,4.40
2018-08-07T18:39:08.954Z,5.47
2018-08-07T18:41:37.416Z,5.53
2018-08-07T18:44:06.068Z,4.80
2018-08-07T18:46:35.032Z,5.30
2018-08-07T18:49:03.792Z,5.87
2018-08-07T18:51:32.398Z,5.53
2018-08-07T18:54:00.843Z,5.72
2018-08-07T18:56:29.561Z,5.80
2018-08-07T18:58:58.075Z,4.67
2018-08-07T19:01:26.507Z,5.10
2018-08-07T19:03:55.135Z,6.20
2018-08-07T19:06:23.627Z,5.67
2018-08-07T19:08:52.529Z,5.53
2018-08-07T19:11:21.106Z,4.95
2018-08-07T19:13:49.612Z,5.90
2018-08-07T19:16:18.180Z,6.00
2018-08-07T19:18:46.836Z,5.20
2018-08-07T19:21:15.263Z,4.72
2018-08-07T19:23:43.744Z,5.60
2018-08-07T19:26:12.274Z,5.08
2018-08-07T19:28:40.952Z,6.03
2018-08-07T19:31:09.800Z,4.78
2018-08-07T19:33:38.403Z,6.67
2018-08-07T19:36:07.276Z,5.15
2018-08-07T19:38:35.867Z,6.10
2018-08-07T19:41:04.420Z,5.40
2018-08-07T19:43:32.888Z,5.00
2018-08-07T19:46:01.414Z,4.87
2018-08-07T19:48:29.929Z,6.13
2018-08-07T19:50:58.668Z,5.13
2018-08-07T19:53:27.168Z,6.40
2018-08-07T19:55:55.642Z,5.13
2018-08-07T19:58:24.313Z,4.50
2018-08-07T20:00:52.994Z,5.20
2018-08-07T20:03:21.431Z,5.77
2018-08-07T20:05:49.886Z,5.27
2018-08-07T20:08:18.315Z,5.57
2018-08-07T20:10:46.838Z,5.97
2018-08-07T20:13:15.315Z,6.20
2018-08-07T20:15:43.800Z,4.60
2018-08-07T20:18:12.480Z,5.30
2018-08-07T20:20:40.911Z,5.90
2018-08-07T20:23:09.384Z,5.57
2018-08-07T20:25:38.055Z,5.80
2018-08-07T20:28:07.052Z,5.53
2018-08-07T20:30:35.524Z,5.57
2018-08-07T20:33:04.089Z,5.00
2018-08-07T20:35:32.531Z,5.73
2018-08-07T20:38:01.133Z,5.40
2018-08-07T20:40:29.725Z,5.33
2018-08-07T20:42:58.968Z,5.13
2018-08-07T20:45:27.831Z,4.73
2018-08-07T20:47:56.305Z,7.73
2018-08-07T20:50:26.165Z,6.03
2018-08-07T20:52:55.413Z,5.03
2018-08-07T20:55:24.134Z,5.85
2018-08-07T20:57:52.620Z,4.80
2018-08-07T21:00:25.175Z,5.40
2018-08-07T21:02:53.718Z,5.53
2018-08-07T21:05:22.867Z,5.47
2018-08-07T21:07:51.957Z,5.40
2018-08-07T21:10:24.488Z,4.80
2018-08-07T21:12:53.411Z,4.87
2018-08-07T21:15:21.896Z,5.87
2018-08-07T21:17:50.376Z,5.30
2018-08-07T21:20:20.363Z,5.33
2018-08-07T21:22:49.196Z,5.23
2018-08-07T21:25:21.145Z,5.80
2018-08-07T21:27:51.458Z,4.80
2018-08-07T21:30:21.683Z,5.57
2018-08-07T21:32:50.177Z,4.50
2018-08-07T21:35:18.866Z,5.70
2018-08-07T21:37:47.370Z,6.10
2018-08-07T21:40:18.637Z,5.17
2018-08-07T21:42:47.612Z,5.13
2018-08-07T21:45:16.481Z,4.83
2018-08-07T21:47:45.490Z,4.43
2018-08-07T21:50:17.067Z,5.07
2018-08-07T21:52:45.641Z,5.50
2018-08-07T21:55:15.429Z,5.00
2018-08-07T21:57:44.114Z,5.07
2018-08-07T22:00:19.448Z,4.50
2018-08-07T22:02:49.194Z,5.50
2018-08-07T22:05:17.764Z,5.00
2018-08-07T22:07:46.287Z,5.57
2018-08-07T22:10:21.042Z,4.93
2018-08-07T22:12:49.502Z,5.10
2018-08-07T22:15:19.122Z,4.90
2018-08-07T22:17:47.606Z,6.70
2018-08-07T22:20:16.112Z,5.90
2018-08-07T22:22:44.643Z,6.10
2018-08-07T22:25:13.540Z,4.90
2018-08-07T22:27:42.072Z,5.00
2018-08-07T22:30:16.982Z,5.20
2018-08-07T22:32:45.542Z,6.45
2018-08-07T22:35:14.069Z,5.00
2018-08-07T22:37:42.495Z,6.22
2018-08-07T22:40:12.009Z,6.20
2018-08-07T22:42:40.494Z,6.12
2018-08-07T22:45:12.139Z,5.83
2018-08-07T22:47:40.951Z,6.40
2018-08-07T22:50:10.734Z,5.67
2018-08-07T22:52:39.471Z,5.90
2018-08-07T22:55:10.264Z,5.60
2018-08-07T22:57:38.815Z,5.70
2018-08-07T23:00:14.655Z,5.80
2018-08-07T23:02:43.418Z,5.43
2018-08-07T23:05:13.306Z,5.67
2018-08-07T23:07:42.053Z,5.80
2018-08-07T23:10:16.543Z,5.47
2018-08-07T23:12:45.452Z,5.70
2018-08-07T23:15:16.176Z,6.17
2018-08-07T23:17:45.272Z,6.80
2018-08-07T23:20:15.506Z,5.42
2018-08-07T23:22:44.010Z,6.07
2018-08-07T23:25:13.010Z,6.50
2018-08-07T23:27:41.533Z,6.53
2018-08-07T23:30:14.710Z,5.25
2018-08-07T23:32:43.163Z,6.58
2018-08-07T23:35:12.109Z,6.67
2018-08-07T23:37:40.595Z,6.70
2018-08-07T23:40:10.960Z,6.50
2018-08-07T23:42:40.043Z,7.30
2018-08-07T23:45:10.287Z,6.60
2018-08-07T23:47:38.796Z,7.57
2018-08-07T23:50:08.167Z,7.40
2018-08-07T23:52:36.679Z,7.90
2018-08-07T23:55:05.866Z,8.03
2018-08-07T23:57:34.354Z,8.13
